createdAt,value
2022-08-17T00:02:05.818Z,42.00
2022-08-17T00:04:50.568Z,42.00
2022-08-17T00:07:17.356Z,42.43
2022-08-17T00:09:43.877Z,44.17
2022-08-17T00:12:43.513Z,42.10
2022-08-17T00:14:57.312Z,47.60
2022-08-17T00:17:23.977Z,46.00
2022-08-17T00:19:50.517Z,46.97
2022-08-17T00:22:32.379Z,42.97
2022-08-17T00:25:03.010Z,43.30
2022-08-17T00:27:29.587Z,45.37
2022-08-17T00:29:56.133Z,44.80
2022-08-17T00:33:11.582Z,44.67
2022-08-17T00:35:11.180Z,40.50
2022-08-17T00:37:37.739Z,41.97
2022-08-17T00:40:05.254Z,42.90
2022-08-17T00:42:31.960Z,41.20
2022-08-17T00:44:59.374Z,39.43
2022-08-17T00:47:26.173Z,39.97
2022-08-17T00:49:53.168Z,39.93
2022-08-17T00:52:24.804Z,38.00
2022-08-17T00:54:54.839Z,37.90
2022-08-17T00:57:24.739Z,37.63
2022-08-17T01:00:02.235Z,38.83
2022-08-17T01:02:34.363Z,40.17
2022-08-17T01:05:07.663Z,39.43
2022-08-17T01:07:34.665Z,39.77
2022-08-17T01:10:07.568Z,41.37
2022-08-17T01:12:54.342Z,41.60
2022-08-17T01:15:20.904Z,39.40
2022-08-17T01:17:48.163Z,39.07
2022-08-17T01:20:15.099Z,40.53
2022-08-17T01:22:41.706Z,41.40
2022-08-17T01:25:09.045Z,40.63
2022-08-17T01:27:37.046Z,43.53
2022-08-17T01:30:57.718Z,42.20
2022-08-17T01:32:54.130Z,44.70
2022-08-17T01:35:20.680Z,45.10
2022-08-17T01:37:47.260Z,45.00
2022-08-17T01:40:46.412Z,42.60
2022-08-17T01:43:22.707Z,40.73
2022-08-17T01:46:03.731Z,47.20
2022-08-17T01:48:36.546Z,46.00
2022-08-17T01:51:07.185Z,46.40
2022-08-17T01:53:42.369Z,44.77
2022-08-17T01:56:14.450Z,43.53
2022-08-17T01:58:42.021Z,41.40
2022-08-17T02:01:10.132Z,39.57
2022-08-17T02:03:38.006Z,39.23
2022-08-17T02:06:06.174Z,39.80
2022-08-17T02:09:02.362Z,37.97
2022-08-17T02:11:32.863Z,38.83
2022-08-17T02:14:03.301Z,38.03
2022-08-17T02:16:36.902Z,42.40
2022-08-17T02:19:10.217Z,41.07
2022-08-17T02:21:38.338Z,39.77
2022-08-17T02:24:08.808Z,42.13
2022-08-17T02:26:35.458Z,44.03
2022-08-17T02:29:02.164Z,44.10
2022-08-17T02:31:29.477Z,43.70
2022-08-17T02:33:56.618Z,43.50
2022-08-17T02:36:31.863Z,41.03
2022-08-17T02:38:58.745Z,41.20
2022-08-17T02:41:25.628Z,39.80
2022-08-17T02:43:53.199Z,38.40
2022-08-17T02:46:19.722Z,40.37
2022-08-17T02:48:46.323Z,40.17
2022-08-17T02:51:12.846Z,41.87
2022-08-17T02:53:39.396Z,41.43
2022-08-17T02:56:06.238Z,39.77
2022-08-17T02:58:35.471Z,40.30
2022-08-17T03:01:05.291Z,38.57
2022-08-17T03:03:32.502Z,39.90
2022-08-17T03:05:59.040Z,40.07
2022-08-17T03:08:25.653Z,39.40
2022-08-17T03:10:52.656Z,40.63
2022-08-17T03:13:20.160Z,48.60
2022-08-17T03:15:47.751Z,50.67
2022-08-17T03:18:24.274Z,47.07
2022-08-17T03:20:52.727Z,44.03
2022-08-17T03:23:24.098Z,42.83
2022-08-17T03:25:53.524Z,41.27
2022-08-17T03:28:21.553Z,39.73
2022-08-17T03:30:48.273Z,39.50
2022-08-17T03:33:15.007Z,40.13
2022-08-17T03:35:42.111Z,39.00
2022-08-17T03:38:15.934Z,38.07
2022-08-17T03:40:57.313Z,40.80
2022-08-17T03:43:30.558Z,39.40
2022-08-17T03:46:27.689Z,40.27
2022-08-17T03:49:18.719Z,39.17
2022-08-17T03:52:04.682Z,36.73
2022-08-17T03:54:49.964Z,37.40
2022-08-17T03:57:16.725Z,34.90
2022-08-17T03:59:44.883Z,35.10
2022-08-17T04:02:19.028Z,33.70
2022-08-17T04:04:45.580Z,35.13
2022-08-17T04:07:12.770Z,35.00
2022-08-17T04:09:39.461Z,34.53
2022-08-17T04:12:06.192Z,37.47
2022-08-17T04:14:50.819Z,34.33
2022-08-17T04:17:21.720Z,33.37
2022-08-17T04:19:48.456Z,33.90
2022-08-17T04:22:33.235Z,34.93
2022-08-17T04:25:16.821Z,34.77
2022-08-17T04:27:43.519Z,43.43
2022-08-17T04:30:10.779Z,41.87
2022-08-17T04:33:02.291Z,43.00
2022-08-17T04:35:37.014Z,44.43
2022-08-17T04:38:03.956Z,46.67
2022-08-17T04:40:49.078Z,45.67
2022-08-17T04:43:18.971Z,43.43
2022-08-17T04:45:55.772Z,42.30
2022-08-17T04:48:29.844Z,44.27
2022-08-17T04:51:03.388Z,44.23
2022-08-17T04:53:59.831Z,40.90
2022-08-17T04:56:28.344Z,39.40
2022-08-17T04:58:58.611Z,49.40
2022-08-17T05:01:28.147Z,50.43
2022-08-17T05:04:02.307Z,51.13
2022-08-17T05:06:48.204Z,54.10
2022-08-17T05:09:15.668Z,52.37
2022-08-17T05:11:44.957Z,54.93
2022-08-17T05:14:12.177Z,55.93
2022-08-17T05:16:38.747Z,57.43
2022-08-17T05:19:05.409Z,54.13
2022-08-17T05:21:32.019Z,54.47
2022-08-17T05:23:59.536Z,57.47
2022-08-17T05:26:29.339Z,61.47
2022-08-17T05:29:00.643Z,58.43
2022-08-17T05:31:30.542Z,58.10
2022-08-17T05:33:57.367Z,58.37
2022-08-17T05:36:42.442Z,57.50
2022-08-17T05:39:16.624Z,56.07
2022-08-17T05:41:45.463Z,50.40
2022-08-17T05:44:12.022Z,51.27
2022-08-17T05:46:44.114Z,49.47
2022-08-17T05:49:12.685Z,49.83
2022-08-17T05:51:47.097Z,48.17
2022-08-17T05:54:32.130Z,48.90
2022-08-17T05:57:28.155Z,50.53
2022-08-17T06:00:43.245Z,48.17
2022-08-17T06:03:09.794Z,51.13
2022-08-17T06:05:36.254Z,50.60
2022-08-17T06:08:10.275Z,50.13
2022-08-17T06:11:07.545Z,48.70
2022-08-17T06:14:02.520Z,47.70
2022-08-17T06:16:38.778Z,47.50
2022-08-17T06:19:33.773Z,46.53
2022-08-17T06:22:02.678Z,48.30
2022-08-17T06:24:35.267Z,50.27
2022-08-17T06:27:09.961Z,44.73
2022-08-17T06:29:54.691Z,42.53
2022-08-17T06:32:21.399Z,38.47
2022-08-17T06:34:48.138Z,41.63
2022-08-17T06:37:33.291Z,40.77
2022-08-17T06:40:17.974Z,42.57
2022-08-17T06:43:06.896Z,41.70
2022-08-17T06:45:49.276Z,41.87
2022-08-17T06:48:24.449Z,40.83
2022-08-17T06:51:02.899Z,39.87
2022-08-17T06:53:29.527Z,36.80
2022-08-17T06:56:03.255Z,38.57
2022-08-17T06:58:31.981Z,37.53
2022-08-17T07:01:26.810Z,40.10
2022-08-17T07:04:11.927Z,37.83
2022-08-17T07:06:52.327Z,37.50
2022-08-17T07:09:26.032Z,35.07
2022-08-17T07:11:58.176Z,36.83
2022-08-17T07:14:31.390Z,29.77
2022-08-17T07:17:01.567Z,29.17
2022-08-17T07:19:31.956Z,32.77
2022-08-17T07:22:14.246Z,31.27
2022-08-17T07:25:03.134Z,27.50
2022-08-17T07:27:38.375Z,29.77
2022-08-17T07:30:10.593Z,25.00
2022-08-17T07:32:50.932Z,21.83
2022-08-17T07:35:41.378Z,22.67
2022-08-17T07:38:35.488Z,23.00
2022-08-17T07:41:06.256Z,24.53
2022-08-17T07:43:39.979Z,20.03
2022-08-17T07:46:31.050Z,24.40
2022-08-17T07:48:58.909Z,22.33
2022-08-17T07:51:30.019Z,21.23
2022-08-17T07:54:13.898Z,19.47
2022-08-17T07:56:48.536Z,18.93
2022-08-17T07:59:18.227Z,15.70
2022-08-17T08:02:01.239Z,22.47
2022-08-17T08:05:00.127Z,22.10
2022-08-17T08:07:20.866Z,19.73
2022-08-17T08:10:20.558Z,22.00
2022-08-17T08:12:48.951Z,21.13
2022-08-17T08:15:33.428Z,17.53
2022-08-17T08:18:03.737Z,19.40
2022-08-17T08:20:51.147Z,17.37
2022-08-17T08:23:33.977Z,14.33
2022-08-17T08:26:08.025Z,17.30
2022-08-17T08:28:40.382Z,16.17
2022-08-17T08:31:19.456Z,14.90
2022-08-17T08:34:55.877Z,15.70
2022-08-17T08:37:35.600Z,13.50
2022-08-17T08:40:42.888Z,13.83
2022-08-17T08:43:27.135Z,11.93
2022-08-17T08:46:28.942Z,12.17
2022-08-17T08:50:02.150Z,14.10
2022-08-17T08:52:36.431Z,11.80
2022-08-17T08:55:18.491Z,12.90
2022-08-17T08:58:02.731Z,11.10
2022-08-17T09:00:35.829Z,11.27
2022-08-17T09:03:36.754Z,10.27
2022-08-17T09:06:57.913Z,10.40
2022-08-17T09:09:42.322Z,9.10
2022-08-17T09:12:21.257Z,10.07
2022-08-17T09:15:22.378Z,8.87
2022-08-17T09:19:02.527Z,8.10
2022-08-17T09:21:19.257Z,10.10
2022-08-17T09:24:12.799Z,9.13
2022-08-17T09:27:10.226Z,8.47
2022-08-17T09:29:40.703Z,8.60
2022-08-17T09:32:20.175Z,7.17
2022-08-17T09:34:53.617Z,6.50
2022-08-17T09:37:27.971Z,6.30
2022-08-17T09:40:14.824Z,6.90
2022-08-17T09:42:56.269Z,6.70
2022-08-17T09:45:57.233Z,7.20
2022-08-17T09:48:31.947Z,6.80
2022-08-17T09:51:08.439Z,6.67
2022-08-17T09:53:39.192Z,6.37
2022-08-17T09:56:16.262Z,6.00
2022-08-17T09:58:56.433Z,6.33
2022-08-17T10:01:31.329Z,6.70
2022-08-17T10:04:00.972Z,6.50
2022-08-17T10:06:33.648Z,6.20
2022-08-17T10:09:15.624Z,6.33
2022-08-17T10:12:04.997Z,5.67
2022-08-17T10:14:44.197Z,5.57
2022-08-17T10:17:44.810Z,6.40
2022-08-17T10:20:20.664Z,5.90
2022-08-17T10:23:15.125Z,6.07
2022-08-17T10:26:04.147Z,6.50
2022-08-17T10:28:40.903Z,5.63
2022-08-17T10:31:34.137Z,6.00
2022-08-17T10:34:25.324Z,6.73
2022-08-17T10:37:29.403Z,5.47
2022-08-17T10:40:31.124Z,5.43
2022-08-17T10:43:18.276Z,5.57
2022-08-17T10:45:51.471Z,5.43
2022-08-17T10:48:39.109Z,5.60
2022-08-17T10:51:29.755Z,5.90
2022-08-17T10:53:57.991Z,5.17
2022-08-17T10:56:38.407Z,5.53
2022-08-17T10:59:05.702Z,5.43
2022-08-17T11:01:32.231Z,6.17
2022-08-17T11:04:09.874Z,5.37
2022-08-17T11:06:41.939Z,5.47
2022-08-17T11:09:23.715Z,5.00
2022-08-17T11:12:25.763Z,5.33
2022-08-17T11:15:16.946Z,4.90
2022-08-17T11:18:08.840Z,5.20
2022-08-17T11:20:41.491Z,4.97
2022-08-17T11:23:38.752Z,4.93
2022-08-17T11:26:27.702Z,4.90
2022-08-17T11:29:00.022Z,5.30
2022-08-17T11:31:38.549Z,4.73
2022-08-17T11:34:13.383Z,5.20
2022-08-17T11:37:01.968Z,5.23
2022-08-17T11:39:34.557Z,5.07
2022-08-17T11:42:16.548Z,5.27
2022-08-17T11:45:09.639Z,5.20
2022-08-17T11:51:18.519Z,5.13
2022-08-17T11:54:14.729Z,5.20
2022-08-17T11:56:50.746Z,5.43
2022-08-17T11:59:46.028Z,4.87
2022-08-17T12:02:35.097Z,5.23
2022-08-17T12:05:27.238Z,5.40
2022-08-17T12:08:05.563Z,5.30
2022-08-17T12:10:35.511Z,5.30
2022-08-17T12:13:15.562Z,5.60
2022-08-17T12:15:48.818Z,5.70
2022-08-17T12:18:30.313Z,5.13
2022-08-17T12:21:37.932Z,5.40
2022-08-17T12:24:19.926Z,4.87
2022-08-17T12:26:53.539Z,5.27
2022-08-17T12:29:38.214Z,5.00
2022-08-17T12:32:07.055Z,5.63
2022-08-17T12:34:40.750Z,5.00
2022-08-17T12:37:24.898Z,4.80
2022-08-17T12:40:02.781Z,5.43
2022-08-17T12:42:34.778Z,5.00
2022-08-17T12:45:01.480Z,4.70
2022-08-17T12:47:30.069Z,4.70
2022-08-17T12:50:28.667Z,5.17
2022-08-17T12:53:01.719Z,4.67
2022-08-17T12:55:32.551Z,5.20
2022-08-17T12:58:01.892Z,4.40
2022-08-17T13:00:34.723Z,5.33
2022-08-17T13:03:19.159Z,4.80
2022-08-17T13:05:57.235Z,4.73
2022-08-17T13:08:45.504Z,4.83
2022-08-17T13:11:16.188Z,5.53
2022-08-17T13:13:46.452Z,5.07
2022-08-17T13:16:12.923Z,4.80
2022-08-17T13:18:44.164Z,4.47
2022-08-17T13:21:12.577Z,4.87
2022-08-17T13:23:39.090Z,4.87
2022-08-17T13:26:15.925Z,4.73
2022-08-17T13:28:51.607Z,4.80
2022-08-17T13:31:22.304Z,4.83
2022-08-17T13:33:48.806Z,4.50
2022-08-17T13:36:30.267Z,4.80
2022-08-17T13:39:15.009Z,4.93
2022-08-17T13:41:42.094Z,4.93
2022-08-17T13:44:30.541Z,4.90
2022-08-17T13:46:59.647Z,5.30
2022-08-17T13:49:41.553Z,5.20
2022-08-17T13:52:40.303Z,5.10
2022-08-17T13:55:21.239Z,4.87
2022-08-17T13:58:05.016Z,5.00
2022-08-17T14:00:36.418Z,4.70
2022-08-17T14:03:05.424Z,5.33
2022-08-17T14:05:32.496Z,4.90
2022-08-17T14:08:02.263Z,5.10
2022-08-17T14:10:35.826Z,4.70
2022-08-17T14:13:02.762Z,4.60
2022-08-17T14:15:55.245Z,4.83
2022-08-17T14:18:18.053Z,4.50
2022-08-17T14:21:04.685Z,4.07
2022-08-17T14:23:33.004Z,4.50
2022-08-17T14:25:59.835Z,4.10
2022-08-17T14:28:26.817Z,4.37
2022-08-17T14:30:54.597Z,4.17
2022-08-17T14:33:22.706Z,4.00
2022-08-17T14:35:53.756Z,4.00
2022-08-17T14:38:20.795Z,4.23
2022-08-17T14:40:49.440Z,4.40
2022-08-17T14:43:16.028Z,4.43
2022-08-17T14:45:43.142Z,4.27
2022-08-17T14:48:10.543Z,4.37
2022-08-17T14:50:40.614Z,4.50
2022-08-17T14:53:13.924Z,4.10
2022-08-17T14:55:40.786Z,4.70
2022-08-17T14:58:09.113Z,5.13
2022-08-17T15:00:39.460Z,4.17
2022-08-17T15:03:06.062Z,4.50
2022-08-17T15:05:36.583Z,4.30
2022-08-17T15:08:05.542Z,4.57
2022-08-17T15:10:33.002Z,5.50
2022-08-17T15:13:00.300Z,4.77
2022-08-17T15:15:27.792Z,4.53
2022-08-17T15:17:54.790Z,5.13
2022-08-17T15:20:28.016Z,4.50
2022-08-17T15:22:56.085Z,4.80
2022-08-17T15:25:24.356Z,4.60
2022-08-17T15:27:51.445Z,4.97
2022-08-17T15:30:18.835Z,5.00
2022-08-17T15:32:51.416Z,5.07
2022-08-17T15:35:27.945Z,5.00
2022-08-17T15:38:10.154Z,4.90
2022-08-17T15:40:41.455Z,4.90
2022-08-17T15:43:11.753Z,5.23
2022-08-17T15:45:39.474Z,5.80
2022-08-17T15:48:07.206Z,4.83
2022-08-17T15:50:33.844Z,4.83
2022-08-17T15:53:01.640Z,5.53
2022-08-17T15:55:30.432Z,5.30
2022-08-17T15:57:57.325Z,5.30
2022-08-17T16:00:24.165Z,5.20
2022-08-17T16:03:44.715Z,5.30
2022-08-17T16:05:40.704Z,5.40
2022-08-17T16:08:07.841Z,5.83
2022-08-17T16:10:35.991Z,5.97
2022-08-17T16:13:04.163Z,5.43
2022-08-17T16:15:31.917Z,5.77
2022-08-17T16:17:59.215Z,5.97
2022-08-17T16:20:26.354Z,6.20
2022-08-17T16:22:54.256Z,5.83
2022-08-17T16:25:50.344Z,6.30
2022-08-17T16:28:13.334Z,6.07
2022-08-17T16:30:41.270Z,5.90
2022-08-17T16:33:11.415Z,6.27
2022-08-17T16:35:38.345Z,6.13
2022-08-17T16:38:05.001Z,6.23
2022-08-17T16:40:35.829Z,6.40
2022-08-17T16:43:04.401Z,5.90
2022-08-17T16:45:36.808Z,6.40
2022-08-17T16:48:04.047Z,6.40
2022-08-17T16:50:32.309Z,6.93
2022-08-17T16:53:11.477Z,7.17
2022-08-17T16:55:38.521Z,7.20
2022-08-17T16:58:06.737Z,6.20
2022-08-17T17:00:33.758Z,7.10
2022-08-17T17:03:19.940Z,7.07
2022-08-17T17:06:06.314Z,6.57
2022-08-17T17:08:48.397Z,7.20
2022-08-17T17:11:23.087Z,6.90
2022-08-17T17:14:02.102Z,6.30
2022-08-17T17:16:28.617Z,7.33
2022-08-17T17:18:58.215Z,7.20
2022-08-17T17:21:35.739Z,6.13
2022-08-17T17:24:10.032Z,6.80
2022-08-17T17:27:07.312Z,6.07
2022-08-17T17:30:02.180Z,6.50
2022-08-17T17:32:54.613Z,6.73
2022-08-17T17:35:43.765Z,6.23
2022-08-17T17:38:21.432Z,6.17
2022-08-17T17:40:52.970Z,5.67
2022-08-17T17:43:38.835Z,6.37
2022-08-17T17:46:28.322Z,7.03
2022-08-17T17:48:57.449Z,6.63
2022-08-17T17:52:18.454Z,6.60
2022-08-17T17:54:55.002Z,6.87
2022-08-17T17:57:30.343Z,6.77
2022-08-17T18:00:08.694Z,6.67
2022-08-17T18:03:06.486Z,6.53
2022-08-17T18:05:39.415Z,6.43
2022-08-17T18:08:14.026Z,7.13
2022-08-17T18:10:49.250Z,6.40
2022-08-17T18:13:54.509Z,6.90
2022-08-17T18:16:21.363Z,8.23
2022-08-17T18:18:50.139Z,7.50
2022-08-17T18:21:25.314Z,7.97
2022-08-17T18:24:01.622Z,7.83
2022-08-17T18:26:36.740Z,7.90
2022-08-17T18:29:34.380Z,8.53
2022-08-17T18:32:16.241Z,8.87
2022-08-17T18:34:48.202Z,8.27
2022-08-17T18:37:31.999Z,6.60
2022-08-17T18:39:58.646Z,5.70
2022-08-17T18:42:29.118Z,3.90
2022-08-17T18:44:56.201Z,4.13
2022-08-17T18:47:28.625Z,4.00
2022-08-17T18:49:58.691Z,5.50
2022-08-17T18:52:33.195Z,5.50
2022-08-17T18:55:13.099Z,5.70
2022-08-17T18:57:43.502Z,6.07
2022-08-17T19:00:20.377Z,6.20
2022-08-17T19:02:57.329Z,6.60
2022-08-17T19:05:41.538Z,6.53
2022-08-17T19:08:35.542Z,5.70
2022-08-17T19:11:17.219Z,5.33
2022-08-17T19:13:55.630Z,5.17
2022-08-17T19:16:41.249Z,5.03
2022-08-17T19:19:17.004Z,4.60
2022-08-17T19:21:53.560Z,4.30
2022-08-17T19:24:23.602Z,4.47
2022-08-17T19:27:15.694Z,4.83
2022-08-17T19:29:50.829Z,4.93
2022-08-17T19:32:25.002Z,6.23
2022-08-17T19:34:52.279Z,6.10
2022-08-17T19:37:47.391Z,5.80
2022-08-17T19:41:11.264Z,6.37
2022-08-17T19:43:50.493Z,6.20
2022-08-17T19:46:35.608Z,6.97
2022-08-17T19:49:34.523Z,6.90
2022-08-17T19:52:28.080Z,7.90
2022-08-17T19:55:05.254Z,8.73
2022-08-17T19:57:50.561Z,9.37
2022-08-17T20:00:19.109Z,8.83
2022-08-17T20:03:16.177Z,9.43
2022-08-17T20:06:13.140Z,9.83
2022-08-17T20:08:59.061Z,10.53
2022-08-17T20:11:38.824Z,10.63
2022-08-17T20:14:13.733Z,10.30
2022-08-17T20:16:41.561Z,11.07
2022-08-17T20:19:12.576Z,10.93
2022-08-17T20:21:52.960Z,11.57
2022-08-17T20:24:28.631Z,12.60
2022-08-17T20:26:59.769Z,12.47
2022-08-17T20:29:40.141Z,12.23
2022-08-17T20:32:21.618Z,12.97
2022-08-17T20:34:48.390Z,12.00
2022-08-17T20:37:14.906Z,13.03
2022-08-17T20:39:41.390Z,14.53
2022-08-17T20:42:21.950Z,13.13
2022-08-17T20:44:57.647Z,14.03
2022-08-17T20:48:07.489Z,12.97
2022-08-17T20:50:45.110Z,14.27
2022-08-17T20:53:15.727Z,14.87
2022-08-17T20:55:51.635Z,13.90
2022-08-17T20:58:24.447Z,15.80
2022-08-17T21:00:57.825Z,15.90
2022-08-17T21:03:24.469Z,15.43
2022-08-17T21:05:59.875Z,16.03
2022-08-17T21:09:04.805Z,16.17
2022-08-17T21:12:03.462Z,15.63
2022-08-17T21:14:46.265Z,15.43
2022-08-17T21:17:38.220Z,16.67
2022-08-17T21:20:49.501Z,17.37
2022-08-17T21:23:28.131Z,15.77
2022-08-17T21:26:32.166Z,16.10
2022-08-17T21:29:29.508Z,16.20
2022-08-17T21:32:05.268Z,16.23
2022-08-17T21:34:44.239Z,16.17
2022-08-17T21:37:19.893Z,17.13
2022-08-17T21:40:00.620Z,18.67
2022-08-17T21:42:36.138Z,16.03
2022-08-17T21:45:18.220Z,17.43
2022-08-17T21:48:07.369Z,17.23
2022-08-17T21:50:35.645Z,16.30
2022-08-17T21:53:04.802Z,17.03
2022-08-17T21:55:33.205Z,17.17
2022-08-17T21:58:13.994Z,16.13
2022-08-17T22:00:44.358Z,18.80
2022-08-17T22:03:24.103Z,16.77
2022-08-17T22:05:51.586Z,17.13
2022-08-17T22:08:22.656Z,17.80
2022-08-17T22:10:51.365Z,16.73
2022-08-17T22:13:17.988Z,16.47
2022-08-17T22:15:50.792Z,17.83
2022-08-17T22:18:24.818Z,17.17
2022-08-17T22:20:57.941Z,16.90
2022-08-17T22:23:58.845Z,15.83
2022-08-17T22:26:47.187Z,15.97
2022-08-17T22:29:44.639Z,15.60
2022-08-17T22:32:29.313Z,16.53
2022-08-17T22:35:34.809Z,14.40
2022-08-17T22:38:19.480Z,14.27
2022-08-17T22:40:53.854Z,15.20
2022-08-17T22:43:26.606Z,14.63
2022-08-17T22:45:57.296Z,14.77
2022-08-17T22:48:27.915Z,15.00
2022-08-17T22:51:12.734Z,15.23
2022-08-17T22:54:09.126Z,16.17
2022-08-17T22:56:54.473Z,14.30
2022-08-17T22:59:45.875Z,15.50
2022-08-17T23:02:34.674Z,15.67
2022-08-17T23:05:11.727Z,15.70
2022-08-17T23:07:40.013Z,16.20
2022-08-17T23:10:09.624Z,16.63
2022-08-17T23:12:39.734Z,15.17
2022-08-17T23:15:18.991Z,15.10
2022-08-17T23:17:46.007Z,17.10
2022-08-17T23:20:15.315Z,15.23
2022-08-17T23:22:51.443Z,14.20
2022-08-17T23:25:27.085Z,16.17
2022-08-17T23:27:54.511Z,16.13
2022-08-17T23:30:23.225Z,16.73
2022-08-17T23:32:53.709Z,17.53
2022-08-17T23:35:39.683Z,15.47
2022-08-17T23:38:11.808Z,16.87
2022-08-17T23:40:39.368Z,16.60
2022-08-17T23:43:24.824Z,15.73
2022-08-17T23:45:57.973Z,16.17
2022-08-17T23:48:28.592Z,17.40
2022-08-17T23:51:09.772Z,17.27
2022-08-17T23:53:40.169Z,18.17
2022-08-17T23:56:11.503Z,16.33
2022-08-17T23:58:43.114Z,16.00
